createdAt,value
2023-05-13T00:00:13.358Z,11.50
2023-05-13T00:01:17.832Z,13.25
2023-05-13T00:02:22.658Z,17.25
2023-05-13T00:03:26.743Z,13.75
2023-05-13T00:04:30.880Z,14.00
2023-05-13T00:05:35.190Z,14.00
2023-05-13T00:06:39.222Z,12.00
2023-05-13T00:07:43.164Z,11.25
2023-05-13T00:08:47.193Z,12.25
2023-05-13T00:09:51.196Z,16.50
2023-05-13T00:10:55.296Z,18.00
2023-05-13T00:11:59.604Z,17.50
2023-05-13T00:13:03.827Z,17.00
2023-05-13T00:14:07.811Z,16.25
2023-05-13T00:15:11.721Z,16.00
2023-05-13T00:16:15.846Z,13.25
2023-05-13T00:17:20.042Z,12.25
2023-05-13T00:18:26.448Z,11.00
2023-05-13T00:19:30.663Z,11.25
2023-05-13T00:20:34.797Z,10.50
2023-05-13T00:21:38.997Z,8.25
2023-05-13T00:22:42.997Z,10.00
2023-05-13T00:23:47.098Z,9.00
2023-05-13T00:24:51.806Z,10.00
2023-05-13T00:25:56.154Z,10.00
2023-05-13T00:27:00.440Z,9.25
2023-05-13T00:28:04.335Z,9.75
2023-05-13T00:29:08.416Z,8.75
2023-05-13T00:30:12.451Z,8.50
2023-05-13T00:31:16.609Z,7.75
2023-05-13T00:32:20.998Z,8.25
2023-05-13T00:33:25.036Z,8.50
2023-05-13T00:34:29.060Z,8.00
2023-05-13T00:35:33.191Z,7.50
2023-05-13T00:36:37.183Z,8.50
2023-05-13T00:37:41.386Z,8.00
2023-05-13T00:38:45.467Z,8.75
2023-05-13T00:39:49.679Z,9.00
2023-05-13T00:40:54.190Z,8.50
2023-05-13T00:41:58.498Z,9.50
2023-05-13T00:43:03.241Z,9.00
2023-05-13T00:44:07.429Z,12.00
2023-05-13T00:45:11.733Z,11.50
2023-05-13T00:46:16.208Z,12.50
2023-05-13T00:47:20.396Z,11.50
2023-05-13T00:48:24.752Z,12.25
2023-05-13T00:49:28.876Z,11.50
2023-05-13T00:50:32.888Z,11.00
2023-05-13T00:51:36.966Z,11.00
2023-05-13T00:52:41.254Z,11.50
2023-05-13T00:53:45.494Z,12.00
2023-05-13T00:54:49.581Z,12.25
2023-05-13T00:55:53.789Z,13.00
2023-05-13T00:56:58.333Z,10.00
2023-05-13T00:58:02.708Z,11.25
2023-05-13T00:59:07.221Z,12.25
2023-05-13T01:00:11.533Z,13.50
2023-05-13T01:01:16.042Z,11.50
2023-05-13T01:02:20.374Z,10.00
2023-05-13T01:03:24.822Z,12.00
2023-05-13T01:04:29.171Z,11.25
2023-05-13T01:05:33.586Z,10.50
2023-05-13T01:06:37.686Z,9.00
2023-05-13T01:07:41.896Z,10.50
2023-05-13T01:08:46.313Z,12.75
2023-05-13T01:09:50.334Z,12.00
2023-05-13T01:10:54.513Z,10.25
2023-05-13T01:11:58.922Z,10.00
2023-05-13T01:13:03.334Z,10.25
2023-05-13T01:14:07.750Z,8.50
2023-05-13T01:15:11.948Z,7.00
2023-05-13T01:16:16.298Z,7.75
2023-05-13T01:17:20.776Z,7.25
2023-05-13T01:18:25.005Z,7.50
2023-05-13T01:19:29.483Z,8.75
2023-05-13T01:20:33.800Z,6.50
2023-05-13T01:21:38.104Z,5.50
2023-05-13T01:22:42.517Z,6.25
2023-05-13T01:23:46.719Z,7.75
2023-05-13T01:24:50.944Z,6.00
2023-05-13T01:25:54.818Z,5.25
2023-05-13T01:26:58.693Z,5.50
2023-05-13T01:28:02.723Z,6.25
2023-05-13T01:29:06.829Z,5.40
2023-05-13T01:30:10.600Z,4.25
2023-05-13T01:31:14.702Z,4.00
2023-05-13T01:32:19.042Z,5.50
2023-05-13T01:33:23.566Z,5.75
2023-05-13T01:34:27.960Z,5.25
2023-05-13T01:35:32.182Z,5.50
2023-05-13T01:36:36.467Z,4.50
2023-05-13T01:37:40.782Z,4.00
2023-05-13T01:38:45.087Z,4.50
2023-05-13T01:39:49.400Z,4.50
2023-05-13T01:40:53.574Z,5.25
2023-05-13T01:41:57.808Z,4.50
2023-05-13T01:43:02.324Z,4.50
2023-05-13T01:44:06.527Z,4.50
2023-05-13T01:45:10.742Z,5.50
2023-05-13T01:46:15.178Z,6.50
2023-05-13T01:47:19.422Z,4.75
2023-05-13T01:48:23.668Z,6.00
2023-05-13T01:49:28.062Z,5.00
2023-05-13T01:50:32.386Z,4.00
2023-05-13T01:51:36.579Z,3.75
2023-05-13T01:52:40.787Z,5.00
2023-05-13T01:53:44.872Z,6.25
2023-05-13T01:54:49.194Z,6.50
2023-05-13T01:55:53.202Z,6.25
2023-05-13T01:56:57.306Z,5.25
2023-05-13T01:58:01.622Z,5.50
2023-05-13T01:59:05.992Z,6.00
2023-05-13T02:00:10.124Z,5.25
2023-05-13T02:01:14.233Z,6.00
2023-05-13T02:02:18.361Z,6.50
2023-05-13T02:03:22.668Z,6.75
2023-05-13T02:04:26.748Z,6.00
2023-05-13T02:05:30.951Z,6.00
2023-05-13T02:06:35.154Z,6.75
2023-05-13T02:07:39.675Z,5.75
2023-05-13T02:08:44.088Z,5.00
2023-05-13T02:09:48.393Z,5.50
2023-05-13T02:10:52.596Z,6.50
2023-05-13T02:11:56.808Z,6.25
2023-05-13T02:13:00.998Z,6.25
2023-05-13T02:14:05.213Z,7.25
2023-05-13T02:15:09.520Z,6.50
2023-05-13T02:16:13.953Z,5.50
2023-05-13T02:17:18.132Z,6.00
2023-05-13T02:18:22.629Z,7.00
2023-05-13T02:19:27.068Z,6.25
2023-05-13T02:20:31.468Z,6.00
2023-05-13T02:21:35.985Z,5.00
2023-05-13T02:22:40.207Z,5.75
2023-05-13T02:23:44.505Z,5.00
2023-05-13T02:24:48.718Z,6.25
2023-05-13T02:25:53.139Z,6.00
2023-05-13T02:26:57.323Z,4.25
2023-05-13T02:28:01.630Z,4.50
2023-05-13T02:29:05.946Z,6.00
2023-05-13T02:30:10.260Z,6.00
2023-05-13T02:31:14.579Z,4.50
2023-05-13T02:32:18.743Z,5.50
2023-05-13T02:33:26.730Z,6.00
2023-05-13T02:34:32.173Z,7.25
2023-05-13T02:35:35.686Z,6.00
2023-05-13T02:36:39.789Z,5.50
2023-05-13T02:37:43.887Z,4.50
2023-05-13T02:38:47.916Z,5.50
2023-05-13T02:39:51.899Z,5.75
2023-05-13T02:40:55.888Z,6.00
2023-05-13T02:42:00.000Z,5.50
2023-05-13T02:43:04.199Z,7.25
2023-05-13T02:44:08.299Z,7.75
2023-05-13T02:45:12.197Z,8.00
2023-05-13T02:46:16.319Z,7.50
2023-05-13T02:47:20.409Z,6.00
2023-05-13T02:48:24.937Z,5.25
2023-05-13T02:49:29.136Z,4.50
2023-05-13T02:50:33.240Z,5.00
2023-05-13T02:51:37.231Z,5.50
2023-05-13T02:52:41.441Z,7.00
2023-05-13T02:53:45.647Z,7.75
2023-05-13T02:54:49.800Z,6.25
2023-05-13T02:55:53.849Z,7.75
2023-05-13T02:56:57.759Z,7.50
2023-05-13T02:58:01.962Z,5.00
2023-05-13T02:59:06.060Z,6.50
2023-05-13T03:00:10.170Z,6.25
2023-05-13T03:01:14.018Z,5.25
2023-05-13T03:02:17.878Z,6.00
2023-05-13T03:03:22.036Z,6.75
2023-05-13T03:04:26.269Z,6.00
2023-05-13T03:05:30.380Z,5.75
2023-05-13T03:06:34.586Z,8.00
2023-05-13T03:07:38.708Z,6.75
2023-05-13T03:08:42.588Z,8.00
2023-05-13T03:09:46.587Z,7.25
2023-05-13T03:10:50.485Z,7.00
2023-05-13T03:11:54.702Z,6.50
2023-05-13T03:12:59.007Z,7.00
2023-05-13T03:14:03.317Z,7.75
2023-05-13T03:15:09.382Z,7.00
2023-05-13T03:16:13.408Z,7.50
2023-05-13T03:17:17.675Z,7.50
2023-05-13T03:18:21.874Z,6.50
2023-05-13T03:19:26.027Z,7.00
2023-05-13T03:20:30.502Z,5.50
2023-05-13T03:21:39.607Z,6.50
2023-05-13T03:22:43.834Z,7.50
2023-05-13T03:23:48.023Z,7.00
2023-05-13T03:24:52.260Z,6.50
2023-05-13T03:25:56.530Z,6.25
2023-05-13T03:27:00.629Z,6.00
2023-05-13T03:28:04.738Z,6.75
2023-05-13T03:29:08.842Z,6.00
2023-05-13T03:30:12.944Z,6.00
2023-05-13T03:31:17.165Z,6.50
2023-05-13T03:36:01.429Z,6.00
2023-05-13T03:37:05.627Z,7.50
2023-05-13T03:38:09.536Z,8.00
2023-05-13T03:39:13.453Z,8.75
2023-05-13T03:40:17.544Z,6.50
2023-05-13T03:41:21.634Z,5.50
2023-05-13T03:42:25.936Z,7.00
2023-05-13T03:43:30.250Z,6.25
2023-05-13T03:44:34.572Z,5.75
2023-05-13T03:45:38.775Z,7.00
2023-05-13T03:46:43.225Z,6.50
2023-05-13T03:47:47.604Z,6.50
2023-05-13T03:48:51.679Z,6.50
2023-05-13T03:49:55.995Z,7.25
2023-05-13T03:51:00.399Z,7.25
2023-05-13T03:52:04.815Z,7.50
2023-05-13T03:53:09.033Z,7.00
2023-05-13T03:54:13.644Z,7.50
2023-05-13T03:55:17.743Z,7.50
2023-05-13T03:56:21.686Z,6.50
2023-05-13T03:57:25.756Z,7.00
2023-05-13T03:58:29.743Z,6.50
2023-05-13T03:59:33.952Z,5.50
2023-05-13T04:00:38.164Z,5.00
2023-05-13T04:01:42.272Z,4.75
2023-05-13T04:02:46.437Z,5.00
2023-05-13T04:03:50.669Z,5.00
2023-05-13T04:04:54.965Z,6.00
2023-05-13T04:05:58.886Z,5.75
2023-05-13T04:07:02.981Z,5.50
2023-05-13T04:08:07.491Z,7.00
2023-05-13T04:09:11.909Z,7.50
2023-05-13T04:10:16.158Z,7.00
2023-05-13T04:11:20.345Z,8.25
2023-05-13T04:12:24.621Z,9.50
2023-05-13T04:13:28.556Z,7.00
2023-05-13T04:14:32.538Z,6.50
2023-05-13T04:15:36.523Z,6.50
2023-05-13T04:16:40.757Z,6.50
2023-05-13T04:17:45.163Z,6.00
2023-05-13T04:18:49.393Z,6.75
2023-05-13T04:19:53.263Z,7.25
2023-05-13T04:20:57.353Z,6.75
2023-05-13T04:22:04.131Z,4.00
2023-05-13T04:23:08.527Z,4.75
2023-05-13T04:24:12.696Z,6.25
2023-05-13T04:25:16.931Z,6.25
2023-05-13T04:26:21.006Z,6.00
2023-05-13T04:27:25.465Z,6.00
2023-05-13T04:28:29.657Z,6.00
2023-05-13T04:29:33.865Z,6.50
2023-05-13T04:30:38.801Z,9.00
2023-05-13T04:31:42.794Z,11.00
2023-05-13T04:32:46.936Z,8.50
2023-05-13T04:33:51.124Z,7.00
2023-05-13T04:34:55.436Z,6.25
2023-05-13T04:35:59.406Z,6.00
2023-05-13T04:37:03.410Z,5.25
2023-05-13T04:38:07.816Z,5.75
2023-05-13T04:39:12.152Z,6.50
2023-05-13T04:40:16.339Z,5.00
2023-05-13T04:41:20.748Z,5.00
2023-05-13T04:42:24.748Z,5.50
2023-05-13T04:43:28.743Z,4.50
2023-05-13T04:44:32.867Z,6.00
2023-05-13T04:45:36.873Z,5.50
2023-05-13T04:46:40.882Z,6.75
2023-05-13T04:47:45.120Z,7.50
2023-05-13T04:48:49.126Z,7.00
2023-05-13T04:49:53.459Z,6.50
2023-05-13T04:50:57.775Z,4.00
2023-05-13T04:52:02.180Z,5.25
2023-05-13T04:53:06.296Z,7.25
2023-05-13T04:54:10.596Z,6.25
2023-05-13T04:55:14.811Z,5.75
2023-05-13T04:56:18.873Z,5.00
2023-05-13T04:57:22.920Z,5.00
2023-05-13T04:58:27.012Z,5.50
2023-05-13T04:59:31.228Z,6.00
2023-05-13T05:00:35.315Z,6.25
2023-05-13T05:01:39.346Z,5.00
2023-05-13T05:02:43.573Z,6.00
2023-05-13T05:03:47.963Z,6.25
2023-05-13T05:04:52.040Z,6.00
2023-05-13T05:05:56.351Z,6.00
2023-05-13T05:07:00.557Z,6.50
2023-05-13T05:08:04.993Z,6.00
2023-05-13T05:09:08.887Z,5.50
2023-05-13T05:10:12.971Z,6.50
2023-05-13T05:11:17.083Z,7.25
2023-05-13T05:12:21.293Z,6.00
2023-05-13T05:13:25.288Z,6.50
2023-05-13T05:14:29.280Z,5.50
2023-05-13T05:15:33.202Z,5.00
2023-05-13T05:16:37.121Z,6.00
2023-05-13T05:17:41.019Z,6.50
2023-05-13T05:18:45.118Z,6.25
2023-05-13T05:19:49.188Z,5.75
2023-05-13T05:20:53.197Z,8.50
2023-05-13T05:21:57.226Z,8.00
2023-05-13T05:23:01.295Z,6.50
2023-05-13T05:24:05.201Z,6.50
2023-05-13T05:25:09.089Z,5.50
2023-05-13T05:26:13.200Z,6.00
2023-05-13T05:27:17.210Z,6.75
2023-05-13T05:28:21.503Z,8.00
2023-05-13T05:29:25.626Z,6.75
2023-05-13T05:30:29.710Z,6.00
2023-05-13T05:31:33.750Z,6.50
2023-05-13T05:32:37.931Z,6.50
2023-05-13T05:33:42.130Z,8.75
2023-05-13T05:34:46.142Z,8.75
2023-05-13T05:35:50.220Z,8.25
2023-05-13T05:36:54.328Z,7.50
2023-05-13T05:37:58.742Z,6.75
2023-05-13T05:39:02.953Z,7.00
2023-05-13T05:40:07.054Z,7.50
2023-05-13T05:41:11.357Z,7.00
2023-05-13T05:42:15.454Z,5.75
2023-05-13T05:43:19.480Z,6.50
2023-05-13T05:44:23.567Z,8.00
2023-05-13T05:45:27.772Z,6.50
2023-05-13T05:46:31.863Z,7.00
2023-05-13T05:47:36.009Z,7.00
2023-05-13T05:48:40.295Z,6.50
2023-05-13T05:49:44.291Z,7.00
2023-05-13T05:50:48.495Z,6.50
2023-05-13T05:51:52.696Z,7.00
2023-05-13T05:52:56.695Z,6.50
2023-05-13T05:54:00.829Z,6.25
2023-05-13T05:55:04.698Z,6.75
2023-05-13T05:56:08.609Z,7.50
2023-05-13T05:57:12.714Z,5.00
2023-05-13T05:58:16.918Z,6.00
2023-05-13T05:59:21.023Z,6.00
2023-05-13T06:00:24.911Z,7.00
2023-05-13T06:01:29.114Z,6.75
2023-05-13T06:02:33.437Z,6.50
2023-05-13T06:03:37.789Z,7.00
2023-05-13T06:04:42.388Z,6.75
2023-05-13T06:05:46.557Z,7.50
2023-05-13T06:06:50.686Z,6.75
2023-05-13T06:07:54.874Z,6.25
2023-05-13T06:08:58.972Z,5.50
2023-05-13T06:10:03.086Z,6.75
2023-05-13T06:11:07.174Z,7.00
2023-05-13T06:12:11.279Z,7.00
2023-05-13T06:13:15.424Z,7.00
2023-05-13T06:14:19.586Z,6.00
2023-05-13T06:15:23.688Z,7.00
2023-05-13T06:16:27.723Z,7.25
2023-05-13T06:17:31.956Z,6.00
2023-05-13T06:18:36.433Z,5.50
2023-05-13T06:19:40.834Z,6.00
2023-05-13T06:20:45.363Z,5.50
2023-05-13T06:21:49.442Z,5.00
2023-05-13T06:22:53.654Z,5.75
2023-05-13T06:23:58.072Z,5.25
2023-05-13T06:25:02.159Z,7.00
2023-05-13T06:26:06.261Z,8.00
2023-05-13T06:27:10.435Z,6.75
2023-05-13T06:28:14.598Z,8.75
2023-05-13T06:29:19.126Z,8.00
2023-05-13T06:30:23.488Z,5.75
2023-05-13T06:31:27.784Z,6.00
2023-05-13T06:32:31.720Z,6.00
2023-05-13T06:33:35.781Z,6.50
2023-05-13T06:34:39.578Z,7.50
2023-05-13T06:35:43.907Z,6.75
2023-05-13T06:36:48.364Z,6.00
2023-05-13T06:37:52.221Z,6.50
2023-05-13T06:38:56.323Z,7.00
2023-05-13T06:40:00.861Z,6.25
2023-05-13T06:41:04.629Z,5.50
2023-05-13T06:42:08.629Z,5.50
2023-05-13T06:43:12.436Z,6.00
2023-05-13T06:44:16.401Z,7.00
2023-05-13T06:45:21.474Z,7.50
2023-05-13T06:46:25.413Z,7.50
2023-05-13T06:47:29.593Z,6.50
2023-05-13T06:48:33.774Z,6.75
2023-05-13T06:49:37.972Z,5.25
2023-05-13T06:50:42.071Z,5.00
2023-05-13T06:51:45.991Z,6.00
2023-05-13T06:52:49.978Z,7.00
2023-05-13T06:53:53.878Z,8.00
2023-05-13T06:54:57.874Z,7.00
2023-05-13T06:56:01.768Z,7.50
2023-05-13T06:57:05.872Z,7.50
2023-05-13T06:58:10.077Z,6.50
2023-05-13T06:59:14.289Z,5.50
2023-05-13T07:00:18.522Z,5.50
2023-05-13T07:01:22.671Z,6.50
2023-05-13T07:02:26.908Z,4.50
2023-05-13T07:03:30.851Z,6.00
2023-05-13T07:04:34.801Z,7.00
2023-05-13T07:05:39.208Z,7.50
2023-05-13T07:06:43.422Z,7.25
2023-05-13T07:07:49.775Z,7.00
2023-05-13T07:08:53.770Z,6.50
2023-05-13T07:09:58.089Z,6.00
2023-05-13T07:11:02.595Z,7.00
2023-05-13T07:12:06.908Z,8.00
2023-05-13T07:13:10.806Z,6.50
2023-05-13T07:14:14.727Z,6.50
2023-05-13T07:15:18.825Z,6.50
2023-05-13T07:16:22.810Z,7.00
2023-05-13T07:17:26.779Z,8.50
2023-05-13T07:18:30.739Z,7.00
2023-05-13T07:19:34.703Z,7.25
2023-05-13T07:20:38.832Z,8.50
2023-05-13T07:21:42.670Z,8.50
2023-05-13T07:22:46.608Z,7.00
2023-05-13T07:23:50.710Z,6.50
2023-05-13T07:24:54.733Z,5.50
2023-05-13T07:25:59.053Z,5.25
2023-05-13T07:27:03.125Z,6.00
2023-05-13T07:28:07.322Z,8.50
2023-05-13T07:29:11.532Z,8.75
2023-05-13T07:30:15.868Z,7.00
2023-05-13T07:31:20.010Z,5.00
2023-05-13T07:32:24.391Z,7.50
2023-05-13T07:33:28.468Z,7.00
2023-05-13T07:34:32.701Z,7.25
2023-05-13T07:35:43.017Z,7.00
2023-05-13T07:36:46.925Z,5.75
2023-05-13T07:37:51.119Z,5.50
2023-05-13T07:38:55.200Z,6.00
2023-05-13T07:39:59.226Z,5.50
2023-05-13T07:41:03.328Z,6.00
2023-05-13T07:42:07.333Z,6.00
2023-05-13T07:43:11.237Z,5.50
2023-05-13T07:44:15.147Z,6.50
2023-05-13T07:45:19.406Z,6.50
2023-05-13T07:46:23.561Z,6.50
2023-05-13T07:47:27.516Z,7.00
2023-05-13T07:48:31.445Z,7.25
2023-05-13T07:49:35.438Z,7.50
2023-05-13T07:50:39.440Z,7.00
2023-05-13T07:51:43.446Z,6.50
2023-05-13T07:52:47.549Z,7.00
2023-05-13T07:53:51.344Z,7.00
2023-05-13T07:54:55.346Z,7.00
2023-05-13T07:55:59.257Z,7.25
2023-05-13T07:57:03.146Z,6.25
2023-05-13T07:58:08.584Z,8.00
2023-05-13T07:59:12.605Z,8.00
2023-05-13T08:00:16.785Z,7.50
2023-05-13T08:01:20.781Z,8.00
2023-05-13T08:02:24.821Z,8.00
2023-05-13T08:03:29.101Z,10.50
2023-05-13T08:04:33.220Z,9.25
2023-05-13T08:05:37.092Z,7.50
2023-05-13T08:06:41.108Z,8.00
2023-05-13T08:07:45.097Z,8.00
2023-05-13T08:08:49.111Z,8.75
2023-05-13T08:09:53.001Z,7.75
2023-05-13T08:10:57.010Z,7.00
2023-05-13T08:12:00.923Z,8.25
2023-05-13T08:13:04.896Z,7.00
2023-05-13T08:14:08.813Z,6.75
2023-05-13T08:15:12.487Z,9.25
2023-05-13T08:16:16.511Z,9.00
2023-05-13T08:17:23.566Z,8.00
2023-05-13T08:18:27.837Z,8.25
2023-05-13T08:19:32.000Z,8.00
2023-05-13T08:20:36.111Z,10.25
2023-05-13T08:21:40.088Z,10.25
2023-05-13T08:22:44.305Z,7.50
2023-05-13T08:23:48.493Z,7.25
2023-05-13T08:24:52.799Z,7.00
2023-05-13T08:25:56.699Z,8.50
2023-05-13T08:27:00.801Z,8.50
2023-05-13T08:28:05.027Z,7.25
2023-05-13T08:29:09.012Z,7.50
2023-05-13T08:30:13.527Z,7.50
2023-05-13T08:31:17.775Z,8.50
2023-05-13T08:32:22.033Z,8.25
2023-05-13T08:33:26.346Z,8.50
2023-05-13T08:34:30.651Z,8.00
2023-05-13T08:35:34.961Z,8.00
2023-05-13T08:36:39.166Z,7.50
2023-05-13T08:37:43.577Z,6.50
2023-05-13T08:38:47.883Z,7.00
2023-05-13T08:39:51.894Z,9.50
2023-05-13T08:40:55.812Z,10.00
2023-05-13T08:41:59.508Z,8.50
2023-05-13T08:43:03.279Z,7.50
2023-05-13T08:44:07.173Z,7.50
2023-05-13T08:45:11.194Z,7.25
2023-05-13T08:46:15.090Z,7.50
2023-05-13T08:47:19.088Z,8.75
2023-05-13T08:48:22.896Z,9.00
2023-05-13T08:49:26.770Z,10.00
2023-05-13T08:50:30.688Z,8.00
2023-05-13T08:51:34.571Z,8.50
2023-05-13T08:52:38.672Z,7.75
2023-05-13T08:53:42.676Z,7.50
2023-05-13T08:54:46.692Z,9.00
2023-05-13T08:55:50.676Z,10.00
2023-05-13T08:56:54.573Z,8.75
2023-05-13T08:57:58.509Z,9.75
2023-05-13T08:59:02.475Z,10.00
2023-05-13T09:00:06.575Z,8.00
2023-05-13T09:01:10.514Z,8.25
2023-05-13T09:02:14.695Z,7.50
2023-05-13T09:03:18.989Z,9.00
2023-05-13T09:04:23.132Z,8.75
2023-05-13T09:05:27.624Z,9.25
2023-05-13T09:06:32.137Z,9.75
2023-05-13T09:07:36.325Z,8.50
2023-05-13T09:08:40.546Z,7.50
2023-05-13T09:09:44.741Z,7.25
2023-05-13T09:10:48.957Z,8.00
2023-05-13T09:11:53.165Z,10.50
2023-05-13T09:12:57.073Z,9.75
2023-05-13T09:14:01.018Z,8.50
2023-05-13T09:15:05.155Z,8.00
2023-05-13T09:16:09.230Z,7.50
2023-05-13T09:17:13.266Z,9.50
2023-05-13T09:18:18.652Z,8.50
2023-05-13T09:19:22.686Z,7.75
2023-05-13T09:20:26.765Z,9.50
2023-05-13T09:21:30.592Z,9.50
2023-05-13T09:22:34.797Z,8.25
2023-05-13T09:23:39.111Z,8.50
2023-05-13T09:24:43.018Z,8.50
2023-05-13T09:25:47.119Z,10.50
2023-05-13T09:26:51.107Z,10.50
2023-05-13T09:27:55.226Z,9.50
2023-05-13T09:28:59.214Z,8.00
2023-05-13T09:30:03.212Z,8.75
2023-05-13T09:31:07.208Z,9.00
2023-05-13T09:32:11.131Z,8.75
2023-05-13T09:33:15.677Z,8.50
2023-05-13T09:34:19.414Z,14.50
2023-05-13T09:35:23.313Z,18.75
2023-05-13T09:36:27.117Z,21.50
2023-05-13T09:37:30.921Z,17.50
2023-05-13T09:38:34.814Z,12.75
2023-05-13T09:39:38.829Z,10.00
2023-05-13T09:40:42.915Z,10.00
2023-05-13T09:41:46.814Z,9.50
2023-05-13T09:42:50.923Z,7.25
2023-05-13T09:43:54.828Z,6.00
2023-05-13T09:44:58.828Z,5.00
2023-05-13T09:46:02.720Z,6.00
2023-05-13T09:47:06.872Z,6.00
2023-05-13T09:48:10.966Z,7.00
2023-05-13T09:49:14.934Z,7.00
2023-05-13T09:50:22.546Z,6.00
2023-05-13T09:51:26.836Z,6.00
2023-05-13T09:52:31.121Z,6.00
2023-05-13T09:53:35.129Z,7.00
2023-05-13T09:54:39.442Z,7.25
2023-05-13T09:55:43.845Z,6.50
2023-05-13T09:56:48.069Z,7.00
2023-05-13T09:57:52.171Z,6.00
2023-05-13T09:58:56.392Z,6.00
2023-05-13T10:00:00.772Z,6.00
2023-05-13T10:01:04.829Z,6.50
2023-05-13T10:02:08.897Z,6.50
2023-05-13T10:03:12.706Z,7.00
2023-05-13T10:04:16.536Z,6.50
2023-05-13T10:05:20.576Z,7.50
2023-05-13T10:06:24.344Z,7.50
2023-05-13T10:07:28.065Z,6.25
2023-05-13T10:08:31.868Z,8.00
2023-05-13T10:09:35.896Z,6.50
2023-05-13T10:10:39.860Z,5.75
2023-05-13T10:11:43.796Z,6.50
2023-05-13T10:12:47.857Z,7.50
2023-05-13T10:13:51.972Z,7.00
2023-05-13T10:14:56.180Z,5.00
2023-05-13T10:16:00.395Z,6.00
2023-05-13T10:17:04.645Z,5.75
2023-05-13T10:18:08.829Z,6.00
2023-05-13T10:19:13.122Z,5.25
2023-05-13T10:20:17.332Z,6.00
2023-05-13T10:21:21.617Z,5.50
2023-05-13T10:22:25.414Z,7.25
2023-05-13T10:23:29.461Z,7.75
2023-05-13T10:24:33.614Z,6.00
2023-05-13T10:25:37.725Z,7.00
2023-05-13T10:26:41.743Z,6.75
2023-05-13T10:27:45.724Z,6.50
2023-05-13T10:28:49.727Z,6.00
2023-05-13T10:29:53.485Z,6.50
2023-05-13T10:30:57.450Z,7.00
2023-05-13T10:32:01.231Z,6.25
2023-05-13T10:33:05.159Z,6.00
2023-05-13T10:34:08.941Z,5.50
2023-05-13T10:35:12.812Z,5.00
2023-05-13T10:36:16.702Z,6.00
2023-05-13T10:37:20.807Z,6.00
2023-05-13T10:38:24.613Z,6.25
2023-05-13T10:39:28.508Z,6.25
2023-05-13T10:40:32.406Z,7.00
2023-05-13T10:41:36.918Z,7.50
2023-05-13T10:42:41.020Z,6.50
2023-05-13T10:43:45.196Z,5.50
2023-05-13T10:44:49.017Z,4.00
2023-05-13T10:45:52.903Z,4.75
2023-05-13T10:46:56.756Z,6.00
2023-05-13T10:48:00.620Z,8.00
2023-05-13T10:49:04.636Z,8.50
2023-05-13T10:50:08.516Z,8.50
2023-05-13T10:51:12.334Z,6.50
2023-05-13T10:52:16.176Z,7.50
2023-05-13T10:53:20.003Z,8.25
2023-05-13T10:54:23.797Z,9.25
2023-05-13T10:55:27.711Z,8.25
2023-05-13T10:56:31.711Z,7.00
2023-05-13T10:57:35.745Z,5.25
2023-05-13T10:58:39.723Z,6.50
2023-05-13T10:59:43.477Z,7.00
2023-05-13T11:00:47.297Z,7.50
2023-05-13T11:01:51.159Z,8.75
2023-05-13T11:02:55.048Z,6.75
2023-05-13T11:03:59.138Z,6.25
2023-05-13T11:05:03.505Z,6.00
2023-05-13T11:06:07.474Z,5.50
2023-05-13T11:07:11.303Z,6.00
2023-05-13T11:08:15.097Z,5.50
2023-05-13T11:09:19.414Z,5.50
2023-05-13T11:10:23.559Z,5.00
2023-05-13T11:11:27.488Z,5.50
2023-05-13T11:12:37.315Z,5.00
2023-05-13T11:13:41.352Z,5.50
2023-05-13T11:14:45.569Z,5.00
2023-05-13T11:15:49.706Z,5.00
2023-05-13T11:16:53.576Z,5.75
2023-05-13T11:17:57.847Z,6.00
2023-05-13T11:19:01.897Z,5.00
2023-05-13T11:20:06.088Z,5.50
2023-05-13T11:21:09.969Z,6.75
2023-05-13T11:22:14.081Z,7.25
2023-05-13T11:23:18.178Z,7.50
2023-05-13T11:24:22.197Z,9.50
2023-05-13T11:25:25.879Z,10.50
2023-05-13T11:26:29.674Z,11.50
2023-05-13T11:27:33.672Z,14.00
2023-05-13T11:28:37.569Z,15.00
2023-05-13T11:29:41.470Z,14.00
2023-05-13T11:30:45.374Z,14.50
2023-05-13T11:31:49.449Z,14.75
2023-05-13T11:32:53.565Z,16.00
2023-05-13T11:33:57.272Z,17.00
2023-05-13T11:35:01.067Z,15.75
2023-05-13T11:36:05.076Z,16.75
2023-05-13T11:37:08.964Z,18.25
2023-05-13T11:38:12.859Z,17.25
2023-05-13T11:39:16.766Z,18.00
2023-05-13T11:40:20.742Z,19.25
2023-05-13T11:41:24.863Z,20.25
2023-05-13T11:42:29.040Z,22.50
2023-05-13T11:43:34.549Z,19.50
2023-05-13T11:44:38.304Z,17.25
2023-05-13T11:45:42.487Z,20.25
2023-05-13T11:46:46.514Z,23.00
2023-05-13T11:47:50.521Z,21.25
2023-05-13T11:48:54.518Z,19.50
2023-05-13T11:49:58.598Z,19.25
2023-05-13T11:51:02.821Z,20.50
2023-05-13T11:52:07.004Z,19.50
2023-05-13T11:53:11.005Z,18.75
2023-05-13T11:54:15.129Z,18.00
2023-05-13T11:55:19.159Z,18.00
2023-05-13T11:56:23.204Z,20.00
2023-05-13T11:57:27.348Z,20.50
2023-05-13T11:58:31.340Z,18.50
2023-05-13T11:59:45.236Z,19.00
2023-05-13T12:00:40.675Z,18.25
2023-05-13T12:01:44.992Z,19.00
2023-05-13T12:02:49.006Z,19.50
2023-05-13T12:03:53.089Z,19.50
2023-05-13T12:04:56.920Z,19.00
2023-05-13T12:06:00.819Z,19.25
2023-05-13T12:07:04.481Z,19.00
2023-05-13T12:08:08.179Z,18.50
2023-05-13T12:09:12.132Z,19.75
2023-05-13T12:10:16.067Z,20.00
2023-05-13T12:11:19.869Z,20.25
2023-05-13T12:12:23.771Z,18.50
2023-05-13T12:13:27.571Z,18.25
2023-05-13T12:14:31.465Z,18.00
2023-05-13T12:15:35.467Z,19.00
2023-05-13T12:16:39.358Z,18.75
2023-05-13T12:17:43.187Z,17.25
2023-05-13T12:18:47.082Z,17.25
2023-05-13T12:19:50.864Z,18.75
2023-05-13T12:20:55.061Z,18.00
2023-05-13T12:22:00.686Z,19.50
2023-05-13T12:23:04.735Z,19.75
2023-05-13T12:24:08.813Z,20.00
2023-05-13T12:25:12.803Z,18.50
2023-05-13T12:26:17.009Z,19.25
2023-05-13T12:27:21.218Z,18.00
2023-05-13T12:28:25.229Z,18.25
2023-05-13T12:29:29.292Z,18.75
2023-05-13T12:30:33.218Z,18.75
2023-05-13T12:31:37.287Z,17.75
2023-05-13T12:32:41.439Z,19.50
2023-05-13T12:33:45.427Z,19.00
2023-05-13T12:34:49.533Z,18.50
2023-05-13T12:35:53.630Z,18.50
2023-05-13T12:36:57.547Z,19.25
2023-05-13T12:38:01.325Z,21.00
2023-05-13T12:39:05.245Z,20.00
2023-05-13T12:40:09.234Z,19.00
2023-05-13T12:41:13.136Z,20.50
2023-05-13T12:42:17.254Z,20.75
2023-05-13T12:43:21.089Z,20.00
2023-05-13T12:44:24.925Z,21.25
2023-05-13T12:45:28.733Z,21.25
2023-05-13T12:46:32.609Z,19.25
2023-05-13T12:47:36.560Z,19.75
2023-05-13T12:48:40.415Z,19.00
2023-05-13T12:49:44.234Z,20.25
2023-05-13T12:50:48.117Z,21.75
2023-05-13T12:51:51.842Z,21.00
2023-05-13T12:52:55.562Z,20.00
2023-05-13T12:53:59.407Z,19.00
2023-05-13T12:55:03.297Z,18.50
2023-05-13T12:56:08.639Z,18.25
2023-05-13T12:57:12.832Z,17.75
2023-05-13T12:58:16.836Z,20.00
2023-05-13T12:59:21.035Z,21.75
2023-05-13T13:00:24.778Z,22.00
2023-05-13T13:01:28.834Z,22.00
2023-05-13T13:02:32.912Z,21.75
2023-05-13T13:03:36.863Z,21.25
2023-05-13T13:04:41.005Z,21.50
2023-05-13T13:05:45.046Z,22.50
2023-05-13T13:06:49.054Z,23.00
2023-05-13T13:07:53.262Z,21.50
2023-05-13T13:08:57.367Z,22.00
2023-05-13T13:10:01.571Z,22.25
2023-05-13T13:11:05.667Z,22.75
2023-05-13T13:12:09.880Z,23.75
2023-05-13T13:13:13.978Z,23.00
2023-05-13T13:14:18.057Z,23.00
2023-05-13T13:15:22.397Z,24.50
2023-05-13T13:16:27.043Z,24.75
2023-05-13T13:17:30.905Z,27.00
2023-05-13T13:18:34.732Z,27.00
2023-05-13T13:19:38.593Z,23.00
2023-05-13T13:20:42.493Z,23.50
2023-05-13T13:21:46.398Z,24.50
2023-05-13T13:22:50.420Z,26.25
2023-05-13T13:23:54.296Z,25.00
2023-05-13T13:24:57.987Z,25.75
2023-05-13T13:26:07.110Z,25.50
2023-05-13T13:27:11.022Z,25.00
2023-05-13T13:28:15.009Z,24.00
2023-05-13T13:29:18.802Z,24.75
2023-05-13T13:30:22.720Z,24.00
2023-05-13T13:31:26.630Z,22.25
2023-05-13T13:32:30.531Z,23.50
2023-05-13T13:33:34.510Z,25.50
2023-05-13T13:34:38.612Z,26.25
2023-05-13T13:35:42.745Z,28.50
2023-05-13T13:36:46.824Z,25.50
2023-05-13T13:37:50.925Z,26.50
2023-05-13T13:38:55.028Z,25.75
2023-05-13T13:39:59.017Z,26.50
2023-05-13T13:41:03.135Z,25.50
2023-05-13T13:42:07.243Z,27.75
2023-05-13T13:43:11.436Z,28.50
2023-05-13T13:44:15.541Z,27.00
2023-05-13T13:45:19.334Z,25.75
2023-05-13T13:46:23.227Z,27.50
2023-05-13T13:47:26.952Z,27.50
2023-05-13T13:48:30.758Z,27.25
2023-05-13T13:49:34.425Z,28.00
2023-05-13T13:50:38.535Z,26.25
2023-05-13T13:51:42.412Z,25.50
2023-05-13T13:52:46.205Z,26.00
2023-05-13T13:53:50.315Z,25.25
2023-05-13T13:54:54.418Z,24.50
2023-05-13T13:55:58.317Z,25.75
2023-05-13T13:57:03.238Z,25.75
2023-05-13T13:58:07.053Z,27.50
2023-05-13T13:59:10.835Z,27.25
2023-05-13T14:00:14.626Z,27.00
2023-05-13T14:01:18.444Z,28.50
2023-05-13T14:02:22.246Z,27.25
2023-05-13T14:03:26.222Z,28.00
2023-05-13T14:04:30.121Z,26.00
2023-05-13T14:05:33.928Z,26.00
2023-05-13T14:06:37.818Z,26.25
2023-05-13T14:07:41.716Z,25.50
2023-05-13T14:08:45.402Z,27.50
2023-05-13T14:09:49.208Z,27.00